Monte — V2FS2 — position and weather

sailwx.info

Track history (hours):
 
Tides and Currents Weather Stations Pressure Air Temp Water Temp Dewpoint Dewpoint Depression Visibility Wind Speed Wind Dir Waves Ship Positions

Monte

Last reported at 2016-Jul-22 12:34 UTC. Time now 2016-Jul-23 17:00 UTC.
Position N 59°15' E 005°20'.

Length 104 m; draft 6.5 m.

Type: Cargo ship. MMSI: 305777000.

Date/timePositionNaut miles runAvg speedWind from/ knotsBaromVisibWave heightAir tempDewpointWater temp
2016-Jul-22 12:34N 59°15' E 005°20'9 8.9
2016-Jul-22 11:34N 59°06' E 005°21'9 9.2
2016-Jul-22 10:33N 58°59' E 005°10'0 0.3
2016-Jul-22 09:34N 58°59' E 005°11'1 1.1
2016-Jul-22 08:33N 58°58' E 005°11'1 1.0
2016-Jul-22 07:33N 58°57' E 005°10'6 3.2
2016-Jul-22 05:33N 58°54' E 005°20'5 5.4
2016-Jul-22 04:33N 58°48' E 005°20'6 5.5
2016-Jul-22 03:33N 58°43' E 005°20'8 7.9
2016-Jul-22 02:33N 58°35' E 005°23'9 8.8
2016-Jul-22 01:31N 58°26' E 005°29'9 9.4
2016-Jul-22 00:33N 58°18' E 005°35'218 9.3
2016-Jul-21 01:08N 54°40' E 005°19'2610.2
2016-Jul-20 22:32N 54°14' E 005°10'1010.5
2016-Jul-20 21:33N 54°04' E 005°06'1110.7
2016-Jul-20 20:33N 53°54' E 005°02'1511.0
2016-Jul-20 19:12N 53°40' E 004°53'711.2
2016-Jul-20 18:32N 53°33' E 004°48'1212.3
2016-Jul-20 17:33N 53°22' E 004°40'1312.8
2016-Jul-20 16:31N 53°10' E 004°31'1312.5
2016-Jul-20 15:31N 52°59' E 004°22'1212.2
2016-Jul-20 14:33N 52°48' E 004°12'1211.4
2016-Jul-20 13:32N 52°40' E 003°59'1110.7
2016-Jul-20 12:31N 52°33' E 003°46'45 9.1
2016-Jul-20 07:33N 51°59' E 002°56'9 9.1
2016-Jul-20 06:33N 51°52' E 002°47'10 9.8
2016-Jul-20 05:33N 51°45' E 002°36'1010.3
2016-Jul-20 04:33N 51°37' E 002°25'1111.0
2016-Jul-20 03:33N 51°29' E 002°13'1110.8
2016-Jul-20 02:33N 51°19' E 002°06'1111.3
2016-Jul-20 01:33N 51°10' E 001°55'1312.6
2016-Jul-20 00:33N 51°02' E 001°39'1413.3
2016-Jul-19 23:30N 50°50' E 001°27'6310.5
2016-Jul-19 17:33N 50°18' E 000°03'9 9.1
2016-Jul-19 16:33N 50°15' W 000°11'8 8.5
2016-Jul-19 15:33N 50°14' W 000°23'8 7.9
2016-Jul-19 14:32N 50°11' W 000°36'23 7.7
2016-Jul-19 11:32N 50°05' W 001°11'9 9.6
2016-Jul-19 10:33N 50°03' W 001°25'1111.1
2016-Jul-19 09:33N 49°60' W 001°41'1212.3
2016-Jul-19 08:33N 49°57' W 001°60'4812.0
2016-Jul-19 04:33N 49°41' W 003°10'86 9.4
2016-Jul-18 19:26N 48°58' W 005°04'8 9.0
2016-Jul-18 18:33N 48°54' W 005°14'10 9.5
2016-Jul-18 17:33N 48°49' W 005°27'  
2016-Jul-16 00:17N 39°15' W 009°50'7 9.8
2016-Jul-15 23:33N 39°08' W 009°50'9 9.5
2016-Jul-15 22:33N 38°59' W 009°50'10 9.8
2016-Jul-15 21:33N 38°49' W 009°50'10 9.7
2016-Jul-15 20:32N 38°39' W 009°49'9 9.3
2016-Jul-15 19:32N 38°30' W 009°46'9 9.0
2016-Jul-15 18:32N 38°21' W 009°43'9 9.2
2016-Jul-15 17:33N 38°12' W 009°41'10 9.6
2016-Jul-15 16:27N 38°02' W 009°38'9 9.6
2016-Jul-15 15:33N 37°53' W 009°36'10 9.7
2016-Jul-15 14:33N 37°44' W 009°33'216 8.7
2016-Jul-14 13:33N 35°58' W 005°37'10 8.6
2016-Jul-14 12:24N 36°01' W 005°25'8 8.6
2016-Jul-14 11:25N 36°09' W 005°22'0 0.1
2016-Jul-14 10:33N 36°09' W 005°22'0 0.0
2016-Jul-14 09:31N 36°09' W 005°22'0 0.0
2016-Jul-14 08:31N 36°09' W 005°22'0 0.0
2016-Jul-14 07:28N 36°09' W 005°22'0 0.2
2016-Jul-14 06:32N 36°09' W 005°22'  
Track history (hours):
 
Tides and Currents Weather Stations Pressure Air Temp Water Temp Dewpoint Dewpoint Depression Visibility Wind Speed Wind Dir Waves Ship Positions

Monte

Last reported at 2016-Jul-22 12:34 UTC. Time now 2016-Jul-23 17:00 UTC.
Position N 59°15' E 005°20'.

Length 104 m; draft 6.5 m.

Type: Cargo ship. MMSI: 305777000.

Date/timePositionNaut miles runAvg speedWind from/ knotsBaromVisibWave heightAir tempDewpointWater temp
2016-Jul-22 12:34N 59°15' E 005°20'9 8.9
2016-Jul-22 11:34N 59°06' E 005°21'9 9.2
2016-Jul-22 10:33N 58°59' E 005°10'0 0.3
2016-Jul-22 09:34N 58°59' E 005°11'1 1.1
2016-Jul-22 08:33N 58°58' E 005°11'1 1.0
2016-Jul-22 07:33N 58°57' E 005°10'6 3.2
2016-Jul-22 05:33N 58°54' E 005°20'5 5.4
2016-Jul-22 04:33N 58°48' E 005°20'6 5.5
2016-Jul-22 03:33N 58°43' E 005°20'8 7.9
2016-Jul-22 02:33N 58°35' E 005°23'9 8.8
2016-Jul-22 01:31N 58°26' E 005°29'9 9.4
2016-Jul-22 00:33N 58°18' E 005°35'218 9.3
2016-Jul-21 01:08N 54°40' E 005°19'2610.2
2016-Jul-20 22:32N 54°14' E 005°10'1010.5
2016-Jul-20 21:33N 54°04' E 005°06'1110.7
2016-Jul-20 20:33N 53°54' E 005°02'1511.0
2016-Jul-20 19:12N 53°40' E 004°53'711.2
2016-Jul-20 18:32N 53°33' E 004°48'1212.3
2016-Jul-20 17:33N 53°22' E 004°40'1312.8
2016-Jul-20 16:31N 53°10' E 004°31'1312.5
2016-Jul-20 15:31N 52°59' E 004°22'1212.2
2016-Jul-20 14:33N 52°48' E 004°12'1211.4
2016-Jul-20 13:32N 52°40' E 003°59'1110.7
2016-Jul-20 12:31N 52°33' E 003°46'45 9.1
2016-Jul-20 07:33N 51°59' E 002°56'9 9.1
2016-Jul-20 06:33N 51°52' E 002°47'10 9.8
2016-Jul-20 05:33N 51°45' E 002°36'1010.3
2016-Jul-20 04:33N 51°37' E 002°25'1111.0
2016-Jul-20 03:33N 51°29' E 002°13'1110.8
2016-Jul-20 02:33N 51°19' E 002°06'1111.3
2016-Jul-20 01:33N 51°10' E 001°55'1312.6
2016-Jul-20 00:33N 51°02' E 001°39'1413.3
2016-Jul-19 23:30N 50°50' E 001°27'6310.5
2016-Jul-19 17:33N 50°18' E 000°03'9 9.1
2016-Jul-19 16:33N 50°15' W 000°11'8 8.5
2016-Jul-19 15:33N 50°14' W 000°23'8 7.9
2016-Jul-19 14:32N 50°11' W 000°36'23 7.7
2016-Jul-19 11:32N 50°05' W 001°11'9 9.6
2016-Jul-19 10:33N 50°03' W 001°25'1111.1
2016-Jul-19 09:33N 49°60' W 001°41'1212.3
2016-Jul-19 08:33N 49°57' W 001°60'4812.0
2016-Jul-19 04:33N 49°41' W 003°10'86 9.4
2016-Jul-18 19:26N 48°58' W 005°04'8 9.0
2016-Jul-18 18:33N 48°54' W 005°14'10 9.5
2016-Jul-18 17:33N 48°49' W 005°27'  
2016-Jul-16 00:17N 39°15' W 009°50'7 9.8
2016-Jul-15 23:33N 39°08' W 009°50'9 9.5
2016-Jul-15 22:33N 38°59' W 009°50'10 9.8
2016-Jul-15 21:33N 38°49' W 009°50'10 9.7
2016-Jul-15 20:32N 38°39' W 009°49'9 9.3
2016-Jul-15 19:32N 38°30' W 009°46'9 9.0
2016-Jul-15 18:32N 38°21' W 009°43'9 9.2
2016-Jul-15 17:33N 38°12' W 009°41'10 9.6
2016-Jul-15 16:27N 38°02' W 009°38'9 9.6
2016-Jul-15 15:33N 37°53' W 009°36'10 9.7
2016-Jul-15 14:33N 37°44' W 009°33'216 8.7
2016-Jul-14 13:33N 35°58' W 005°37'10 8.6
2016-Jul-14 12:24N 36°01' W 005°25'8 8.6
2016-Jul-14 11:25N 36°09' W 005°22'0 0.1
2016-Jul-14 10:33N 36°09' W 005°22'0 0.0
2016-Jul-14 09:31N 36°09' W 005°22'0 0.0
2016-Jul-14 08:31N 36°09' W 005°22'0 0.0
2016-Jul-14 07:28N 36°09' W 005°22'0 0.2
2016-Jul-14 06:32N 36°09' W 005°22'  

Dump ship's entire track history